Time;durP1;ratioP1;P1;durP2;ratioP2;P2;SDS_P1;SDS_P2;PMS_P1;PMS_P2;Temp;Humidity;BMP_temperature;BMP_pressure;BME280_temperature;BME280_humidity;BME280_pressure;Samples;Min_cycle;Max_cycle;Signal;HPM_P1;HPM_P2
2023/05/31 00:04:14;;;;;;;16.60;15.00;;;12.50;99.90;;;;;;2613920;54;20247;-69
2023/05/31 00:10:02;;;;;;;17.80;15.70;;;12.50;99.90;;;;;;2613977;54;20130;-71
2023/05/31 00:15:49;;;;;;;19.33;16.37;;;12.40;99.90;;;;;;2615134;54;20126;-71
2023/05/31 00:21:37;;;;;;;18.33;15.27;;;12.30;99.90;;;;;;2613697;54;20262;-71
2023/05/31 00:27:25;;;;;;;16.00;14.40;;;12.20;99.90;;;;;;2614572;54;20394;-71
2023/05/31 00:30:46;;;;;;;16.40;13.97;;;12.20;99.90;;;;;;2613197;47;20415;-70
2023/05/31 00:33:12;;;;;;;16.43;14.70;;;12.20;99.90;;;;;;2614786;54;20278;-71
2023/05/31 00:39:00;;;;;;;16.63;14.90;;;12.10;99.90;;;;;;2614876;54;20656;-70
2023/05/31 00:44:47;;;;;;;19.00;15.60;;;12.10;99.90;;;;;;2614982;54;20165;-71
2023/05/31 00:50:35;;;;;;;21.00;14.30;;;11.90;99.90;;;;;;2614892;54;20150;-70
2023/05/31 00:56:23;;;;;;;17.03;15.30;;;12.00;99.90;;;;;;2613572;54;20157;-71
2023/05/31 01:02:11;;;;;;;17.50;15.57;;;11.90;99.90;;;;;;2614933;54;20122;-78
2023/05/31 01:07:59;;;;;;;18.63;15.20;;;11.80;99.90;;;;;;2614505;54;20415;-76
2023/05/31 01:20:09;;;;;;;17.43;15.43;;;11.60;99.90;;;;;;2614395;54;20395;-76
2023/05/31 01:25:56;;;;;;;15.93;14.23;;;11.60;99.90;;;;;;2614430;54;20386;-77
2023/05/31 01:35:18;;;;;;;16.40;13.57;;;11.50;99.90;;;;;;2614612;54;20433;-77
2023/05/31 01:41:07;;;;;;;18.13;14.53;;;11.40;99.90;;;;;;2614417;54;20387;-76
2023/05/31 01:46:55;;;;;;;15.23;13.63;;;11.30;99.90;;;;;;2614242;54;20403;-76
2023/05/31 01:52:43;;;;;;;16.70;13.60;;;11.20;99.90;;;;;;2614083;54;20437;-77
2023/05/31 01:58:31;;;;;;;15.43;13.77;;;11.10;99.90;;;;;;2614263;39;20206;-76
2023/05/31 02:04:20;;;;;;;18.50;14.67;;;10.90;99.90;;;;;;2614478;54;20386;-76
2023/05/31 02:10:08;;;;;;;15.73;14.13;;;10.90;99.90;;;;;;2614222;54;20387;-77
2023/05/31 02:15:56;;;;;;;18.77;15.17;;;10.90;99.90;;;;;;2614165;54;20958;-76
2023/05/31 02:21:43;;;;;;;15.37;13.80;;;10.90;99.90;;;;;;2614249;54;20427;-78
2023/05/31 02:27:31;;;;;;;16.20;13.30;;;10.80;99.90;;;;;;2614072;39;20637;-76
2023/05/31 02:30:44;;;;;;;16.27;14.30;;;10.80;99.90;;;;;;2614245;54;20518;-77
2023/05/31 02:33:09;;;;;;;17.80;14.47;;;10.80;99.90;;;;;;2614582;39;20651;-77
2023/05/31 02:38:57;;;;;;;14.73;13.13;;;10.90;99.90;;;;;;2614140;54;20194;-78
2023/05/31 02:44:45;;;;;;;15.80;12.90;;;10.80;99.90;;;;;;2614179;54;20874;-77
2023/05/31 02:50:33;;;;;;;18.50;15.70;;;10.70;99.90;;;;;;2614700;54;20154;-76
2023/05/31 02:56:21;;;;;;;20.40;14.37;;;10.80;99.90;;;;;;2613291;54;21068;-71
2023/05/31 03:02:09;;;;;;;19.63;14.90;;;10.70;99.90;;;;;;2613564;39;20517;-71
2023/05/31 03:07:57;;;;;;;14.63;13.10;;;10.60;99.90;;;;;;2614085;54;20158;-71
2023/05/31 03:13:44;;;;;;;18.97;14.13;;;10.50;99.90;;;;;;2614040;39;20519;-72
2023/05/31 03:19:32;;;;;;;16.37;14.30;;;10.50;99.90;;;;;;2614381;54;20941;-71
2023/05/31 03:25:20;;;;;;;18.40;15.50;;;10.50;99.90;;;;;;2614334;54;20126;-72
2023/05/31 03:35:17;;;;;;;17.37;13.53;;;10.40;99.90;;;;;;2614313;54;20951;-72
2023/05/31 03:41:04;;;;;;;17.27;14.70;;;10.40;99.90;;;;;;2614328;54;20928;-72
2023/05/31 03:46:52;;;;;;;16.57;14.43;;;10.40;99.90;;;;;;2614495;54;20138;-72
2023/05/31 03:52:39;;;;;;;18.57;14.57;;;10.40;99.90;;;;;;2613444;54;20282;-72
2023/05/31 03:58:27;;;;;;;17.07;15.03;;;10.40;99.90;;;;;;2613661;54;21112;-72
2023/05/31 04:04:15;;;;;;;18.70;14.03;;;10.50;99.90;;;;;;2613924;54;20652;-71
2023/05/31 04:10:02;;;;;;;17.83;14.50;;;10.60;99.90;;;;;;2613003;54;20270;-72
2023/05/31 04:15:50;;;;;;;19.00;14.23;;;10.70;99.90;;;;;;2613602;54;20732;-72
2023/05/31 04:21:38;;;;;;;20.17;15.43;;;10.80;99.90;;;;;;2612372;54;20130;-72
2023/05/31 04:27:27;;;;;;;22.37;16.20;;;10.90;99.90;;;;;;2612951;54;20142;-72
2023/05/31 04:30:46;;;;;;;23.00;15.93;;;11.00;99.90;;;;;;2613327;50;20390;-72
2023/05/31 04:33:11;;;;;;;22.67;16.43;;;11.10;99.90;;;;;;2613258;54;20447;-73
2023/05/31 04:38:59;;;;;;;22.43;15.50;;;11.30;99.90;;;;;;2614054;39;20532;-72
2023/05/31 04:44:48;;;;;;;21.17;18.57;;;11.60;99.90;;;;;;2613136;54;20265;-72
2023/05/31 04:50:35;;;;;;;20.30;17.03;;;11.90;99.90;;;;;;2612830;39;20746;-72
2023/05/31 04:56:24;;;;;;;20.80;17.03;;;12.40;99.90;;;;;;2613173;54;20158;-72
2023/05/31 05:02:12;;;;;;;25.80;18.23;;;12.60;99.90;;;;;;2612392;54;20550;-72
2023/05/31 05:08:00;;;;;;;18.20;16.40;;;12.90;99.90;;;;;;2613219;54;20114;-72
2023/05/31 05:13:48;;;;;;;19.27;17.03;;;13.40;99.90;;;;;;2608858;54;20135;-72
2023/05/31 05:19:35;;;;;;;19.13;17.30;;;13.80;99.90;;;;;;2613228;46;20134;-71
2023/05/31 05:25:23;;;;;;;23.30;18.27;;;14.60;99.90;;;;;;2613125;54;20127;-72
2023/05/31 05:35:20;;;;;;;18.93;17.13;;;14.30;99.90;;;;;;2612717;54;20383;-72
2023/05/31 05:41:12;;;;;;;22.70;17.90;;;14.60;99.90;;;;;;2611176;46;20435;-72
2023/05/31 05:46:59;;;;;;;20.63;18.73;;;15.10;99.90;;;;;;2609015;39;20896;-71
2023/05/31 05:52:48;;;;;;;19.27;17.67;;;15.70;99.90;;;;;;2612655;54;20149;-71
2023/05/31 05:58:35;;;;;;;20.60;18.70;;;16.00;99.90;;;;;;2612692;54;20977;-72
2023/05/31 06:04:23;;;;;;;20.07;18.23;;;16.30;99.90;;;;;;2614352;54;20130;-72
2023/05/31 06:10:11;;;;;;;20.80;19.20;;;16.70;99.90;;;;;;2612538;54;20141;-72
2023/05/31 06:15:59;;;;;;;19.17;17.53;;;16.90;99.90;;;;;;2612180;54;20637;-72
2023/05/31 06:21:48;;;;;;;22.80;20.70;;;16.80;99.90;;;;;;2611086;46;20161;-72
2023/05/31 06:27:36;;;;;;;19.10;17.50;;;17.20;99.90;;;;;;2612998;54;20359;-72
2023/05/31 06:30:48;;;;;;;20.97;19.40;;;17.30;99.90;;;;;;2611776;54;20404;-72
2023/05/31 06:33:13;;;;;;;20.40;18.40;;;17.40;99.90;;;;;;2611383;54;20669;-72
2023/05/31 06:39:01;;;;;;;20.17;18.67;;;17.60;99.90;;;;;;2612276;54;20250;-72
2023/05/31 06:44:50;;;;;;;20.13;18.43;;;18.30;99.90;;;;;;2612150;54;20664;-72
2023/05/31 06:50:37;;;;;;;19.60;18.10;;;17.60;99.90;;;;;;2610051;54;20375;-72
2023/05/31 06:56:27;;;;;;;19.53;18.00;;;18.50;99.90;;;;;;2609991;54;20143;-72
2023/05/31 07:02:16;;;;;;;19.10;17.60;;;18.40;99.90;;;;;;2609542;54;20355;-72
2023/05/31 07:08:03;;;;;;;21.27;19.57;;;18.60;99.90;;;;;;2611547;54;20423;-72
2023/05/31 07:13:51;;;;;;;20.93;19.23;;;19.20;99.90;;;;;;2612762;54;20159;-71
2023/05/31 07:19:46;;;;;;;21.73;19.73;;;19.30;99.90;;;;;;2612861;54;20122;-72
2023/05/31 07:25:34;;;;;;;21.37;18.93;;;19.70;99.90;;;;;;2611393;54;20363;-72
2023/05/31 07:35:20;;;;;;;20.27;18.47;;;19.60;99.90;;;;;;2610184;39;20840;-71
2023/05/31 07:41:08;;;;;;;20.47;18.77;;;20.60;88.80;;;;;;2609129;54;20399;-72
2023/05/31 07:46:56;;;;;;;20.30;18.73;;;20.70;72.10;;;;;;2606174;54;20134;-72
2023/05/31 07:52:46;;;;;;;19.93;18.33;;;20.70;69.90;;;;;;2611063;54;20223;-72
2023/05/31 07:58:33;;;;;;;19.87;18.47;;;21.30;59.40;;;;;;2606892;54;20492;-72
2023/05/31 08:04:21;;;;;;;20.23;18.70;;;21.50;52.30;;;;;;2608602;54;20139;-72
2023/05/31 08:10:10;;;;;;;19.00;17.30;;;21.70;48.40;;;;;;2606613;54;20208;-72
2023/05/31 08:15:58;;;;;;;18.80;17.20;;;21.70;43.20;;;;;;2610520;46;20410;-71
2023/05/31 08:21:46;;;;;;;19.70;17.80;;;22.00;43.70;;;;;;2610021;54;20131;-72
2023/05/31 08:27:34;;;;;;;18.37;16.87;;;22.30;38.00;;;;;;2608414;54;20640;-72
2023/05/31 08:30:48;;;;;;;18.67;17.40;;;22.60;36.50;;;;;;2610377;46;20411;-72
2023/05/31 08:33:13;;;;;;;17.70;16.50;;;22.50;34.00;;;;;;2609293;51;20711;-71
2023/05/31 08:39:03;;;;;;;19.17;17.50;;;22.30;31.70;;;;;;2610931;39;20724;-71
2023/05/31 08:44:51;;;;;;;17.07;15.67;;;23.40;28.70;;;;;;2608089;54;20422;-72
2023/05/31 08:50:40;;;;;;;19.07;17.23;;;23.40;28.70;;;;;;2610235;54;20162;-72
2023/05/31 08:56:28;;;;;;;17.67;16.10;;;22.90;29.00;;;;;;2610567;54;20401;-72
2023/05/31 09:02:16;;;;;;;15.97;14.77;;;24.20;22.60;;;;;;2612678;31;20792;-71
2023/05/31 09:08:05;;;;;;;17.87;16.47;;;24.20;22.50;;;;;;2612597;54;20358;-72
2023/05/31 09:13:53;;;;;;;18.37;16.90;;;23.60;17.70;;;;;;2609687;54;22693;-72
2023/05/31 09:26:14;;;;;;;18.93;17.30;;;24.80;18.40;;;;;;2608960;54;21914;-72
2023/05/31 09:35:27;;;;;;;17.17;15.70;;;24.70;14.10;;;;;;2610235;54;20894;-71
2023/05/31 09:41:19;;;;;;;17.70;16.17;;;24.50;12.40;;;;;;2609344;54;20411;-71
2023/05/31 09:47:07;;;;;;;17.33;15.93;;;24.90;8.20;;;;;;2609686;54;20387;-72
2023/05/31 09:52:58;;;;;;;16.30;15.17;;;25.00;9.10;;;;;;2610394;54;20383;-71
2023/05/31 09:58:46;;;;;;;16.50;15.40;;;25.20;7.00;;;;;;2610743;54;20917;-72
2023/05/31 10:04:35;;;;;;;16.77;15.37;;;25.60;3.20;;;;;;2612937;54;20138;-72
2023/05/31 10:10:23;;;;;;;15.60;14.37;;;25.60;1.00;;;;;;2613717;54;20375;-72
2023/05/31 10:16:11;;;;;;;16.87;15.47;;;25.40;1.00;;;;;;2612447;54;20129;-71
2023/05/31 10:22:03;;;;;;;16.60;15.33;;;25.70;1.00;;;;;;2610582;54;20391;-72
2023/05/31 10:27:55;;;;;;;15.77;14.47;;;25.40;1.00;;;;;;2609146;54;20533;-72
2023/05/31 10:30:49;;;;;;;17.13;15.63;;;25.30;1.00;;;;;;2609509;54;20515;-71
2023/05/31 10:33:17;;;;;;;15.03;13.73;;;24.90;1.00;;;;;;2610021;54;20415;-73
2023/05/31 10:39:11;;;;;;;15.20;14.07;;;25.50;1.00;;;;;;2610145;54;20368;-72
2023/05/31 10:45:11;;;;;;;15.33;14.13;;;25.70;1.00;;;;;;2608693;54;20378;-71
2023/05/31 10:48:14;;;;;;;15.10;14.00;;;26.00;1.00;;;;;;2608117;47;20643;-71
2023/05/31 10:51:00;;;;;;;16.20;14.07;;;25.90;1.00;;;;;;2610465;54;21254;-72
2023/05/31 10:56:55;;;;;;;14.80;13.70;;;25.90;1.00;;;;;;2610284;54;20383;-72
2023/05/31 11:02:48;;;;;;;15.70;14.37;;;25.90;1.00;;;;;;2606831;54;20427;-71
2023/05/31 11:08:36;;;;;;;15.47;14.37;;;26.20;1.00;;;;;;2609226;54;20371;-73
2023/05/31 11:14:29;;;;;;;15.50;14.33;;;26.10;1.00;;;;;;2613272;54;20247;-72
2023/05/31 11:20:17;;;;;;;16.77;15.17;;;26.30;1.00;;;;;;2612952;54;21127;-73
2023/05/31 11:26:10;;;;;;;14.30;13.30;;;26.50;1.00;;;;;;2611962;54;20410;-71
2023/05/31 11:35:19;;;;;;;14.00;12.90;;;26.10;1.00;;;;;;2610422;54;20420;-72
2023/05/31 11:41:07;;;;;;;15.10;13.70;;;26.40;1.00;;;;;;2612213;54;20150;-72
2023/05/31 11:47:00;;;;;;;19.37;13.17;;;26.40;1.00;;;;;;2609826;54;21074;-71
2023/05/31 11:52:49;;;;;;;15.10;13.87;;;27.30;1.00;;;;;;2611899;54;20394;-72
2023/05/31 11:58:37;;;;;;;14.10;13.10;;;26.70;1.00;;;;;;2611791;54;20426;-72
2023/05/31 12:04:30;;;;;;;14.20;13.10;;;26.70;1.00;;;;;;2608278;54;20150;-72
2023/05/31 12:10:18;;;;;;;15.10;13.50;;;26.70;1.00;;;;;;2609456;54;20391;-71
2023/05/31 12:16:07;;;;;;;14.00;12.80;;;26.70;1.00;;;;;;2608133;54;20250;-71
2023/05/31 12:21:54;;;;;;;14.03;13.03;;;26.70;1.00;;;;;;2608700;54;20367;-72
2023/05/31 12:27:44;;;;;;;14.10;12.80;;;26.60;1.00;;;;;;2609460;54;20133;-71
2023/05/31 12:30:48;;;;;;;14.00;12.57;;;26.70;1.00;;;;;;2610583;54;20502;-72
2023/05/31 12:33:14;;;;;;;15.10;13.60;;;26.60;1.00;;;;;;2610417;54;20590;-71
2023/05/31 12:45:32;;;;;;;13.60;12.60;;;27.30;1.00;;;;;;2614107;54;20885;-72
2023/05/31 12:51:23;;;;;;;13.50;12.40;;;26.50;1.00;;;;;;2610289;54;20203;-71
2023/05/31 12:57:11;;;;;;;13.50;12.50;;;27.00;1.00;;;;;;2609876;54;20399;-71
2023/05/31 13:02:58;;;;;;;13.33;12.23;;;27.40;1.00;;;;;;2609557;54;20427;-72
2023/05/31 13:08:46;;;;;;;13.00;12.00;;;27.60;1.00;;;;;;2614196;54;20125;-71
2023/05/31 13:14:34;;;;;;;13.90;12.90;;;27.10;1.00;;;;;;2613132;54;20131;-71
2023/05/31 13:20:23;;;;;;;13.17;12.17;;;27.20;1.00;;;;;;2610509;54;20127;-72
2023/05/31 13:26:11;;;;;;;12.90;11.80;;;27.30;1.00;;;;;;2610998;54;20383;-72
2023/05/31 13:35:20;;;;;;;13.47;12.37;;;27.00;1.00;;;;;;2610608;54;20399;-71
2023/05/31 13:41:09;;;;;;;12.80;11.90;;;27.40;1.00;;;;;;2612686;54;20161;-71
2023/05/31 13:46:56;;;;;;;12.87;11.83;;;27.10;1.00;;;;;;2608681;54;20383;-72
2023/05/31 13:52:44;;;;;;;13.53;12.43;;;27.40;1.00;;;;;;2614118;39;20264;-72
2023/05/31 13:58:32;;;;;;;13.77;12.43;;;26.90;1.00;;;;;;2613405;54;20154;-71
2023/05/31 14:04:19;;;;;;;13.23;12.30;;;27.50;1.00;;;;;;2613210;54;20115;-72
2023/05/31 14:10:08;;;;;;;13.60;12.47;;;27.10;1.00;;;;;;2612783;54;20122;-72
2023/05/31 14:15:56;;;;;;;13.60;12.30;;;27.10;1.00;;;;;;2612439;54;20447;-72
2023/05/31 14:21:43;;;;;;;12.90;11.60;;;27.40;1.00;;;;;;2611925;54;20371;-70
2023/05/31 14:27:31;;;;;;;12.20;11.33;;;26.90;1.00;;;;;;2613968;54;20131;-71
2023/05/31 14:30:47;;;;;;;12.90;11.80;;;27.50;1.00;;;;;;2613243;54;20391;-71
2023/05/31 14:33:13;;;;;;;12.37;11.43;;;27.60;1.00;;;;;;2611480;54;20161;-72
2023/05/31 14:39:01;;;;;;;12.47;11.67;;;27.50;1.00;;;;;;2612232;54;20126;-72
2023/05/31 14:44:49;;;;;;;12.20;11.30;;;27.60;1.00;;;;;;2612003;39;20830;-71
2023/05/31 14:50:37;;;;;;;11.77;10.97;;;27.10;1.00;;;;;;2607254;54;20212;-73
2023/05/31 14:56:26;;;;;;;12.87;11.97;;;26.60;1.00;;;;;;2611155;54;20255;-71
2023/05/31 15:02:13;;;;;;;12.67;11.77;;;27.30;1.00;;;;;;2609496;54;21085;-72
2023/05/31 15:08:01;;;;;;;12.67;11.60;;;27.00;1.00;;;;;;2612782;54;20154;-72
2023/05/31 15:13:49;;;;;;;13.00;11.90;;;27.10;1.00;;;;;;2613288;54;20138;-72
2023/05/31 15:19:38;;;;;;;14.53;13.40;;;26.90;1.00;;;;;;2610567;54;20278;-72
2023/05/31 15:25:25;;;;;;;12.63;11.83;;;27.10;1.00;;;;;;2612243;54;20395;-72
2023/05/31 15:35:16;;;;;;;12.77;11.87;;;27.20;1.00;;;;;;2608828;54;20451;-72
2023/05/31 15:41:04;;;;;;;13.53;12.63;;;26.80;1.00;;;;;;2611827;54;20355;-71
2023/05/31 15:46:51;;;;;;;14.13;12.93;;;26.60;1.00;;;;;;2610583;54;20133;-71
2023/05/31 15:52:39;;;;;;;13.30;12.40;;;26.90;1.00;;;;;;2613934;54;20129;-72
2023/05/31 15:58:27;;;;;;;14.00;13.00;;;26.00;1.00;;;;;;2612828;54;20126;-71
2023/05/31 16:04:14;;;;;;;15.00;13.77;;;26.10;1.00;;;;;;2614182;54;20118;-72
2023/05/31 16:10:03;;;;;;;13.97;12.93;;;26.80;1.00;;;;;;2611858;54;20133;-72
2023/05/31 16:15:51;;;;;;;15.10;14.00;;;27.20;1.00;;;;;;2612618;54;21127;-71
2023/05/31 16:21:39;;;;;;;14.97;14.17;;;27.30;1.00;;;;;;2612733;54;20157;-72
2023/05/31 16:27:27;;;;;;;14.00;13.10;;;26.50;1.00;;;;;;2612949;54;20126;-72
2023/05/31 16:33:14;;;;;;;12.90;12.20;;;26.00;1.00;;;;;;2614132;54;20259;-72
2023/05/31 16:42:24;;;;;;;13.83;12.50;;;25.90;1.00;;;;;;2613688;54;20398;-72
2023/05/31 16:48:12;;;;;;;16.43;15.13;;;25.70;1.00;;;;;;2612317;54;20130;-72
2023/05/31 16:54:00;;;;;;;15.10;14.00;;;25.40;1.00;;;;;;2615236;54;20150;-71
2023/05/31 16:59:47;;;;;;;14.50;13.80;;;25.10;1.00;;;;;;2614209;54;20154;-71
2023/05/31 17:05:35;;;;;;;14.60;13.70;;;25.00;1.00;;;;;;2614153;54;20146;-72
2023/05/31 17:11:25;;;;;;;14.40;13.60;;;24.70;1.00;;;;;;2614118;54;20158;-71
2023/05/31 17:17:13;;;;;;;15.67;14.27;;;24.70;1.00;;;;;;2613343;54;20383;-72
2023/05/31 17:23:00;;;;;;;13.70;12.90;;;24.50;1.00;;;;;;2613404;54;20211;-72
2023/05/31 17:28:48;;;;;;;14.03;12.90;;;24.30;1.00;;;;;;2614390;54;20656;-71
2023/05/31 17:34:36;;;;;;;13.63;12.93;;;23.80;1.00;;;;;;2612726;54;22250;-72
2023/05/31 17:37:50;;;;;;;14.73;13.73;;;23.70;1.00;;;;;;2610921;47;20408;-71
2023/05/31 17:40:16;;;;;;;15.47;14.40;;;23.60;1.00;;;;;;2614820;54;20679;-72
2023/05/31 17:46:03;;;;;;;14.90;13.90;;;23.50;1.00;;;;;;2613732;54;20118;-72
2023/05/31 17:51:51;;;;;;;14.50;13.40;;;23.50;1.00;;;;;;2614397;54;20134;-71
2023/05/31 17:57:43;;;;;;;14.33;13.53;;;23.40;1.00;;;;;;2614459;46;20543;-71
2023/05/31 18:03:31;;;;;;;14.03;13.00;;;23.40;1.50;;;;;;2609239;54;20383;-72
2023/05/31 18:09:19;;;;;;;18.37;17.30;;;23.10;3.00;;;;;;2609642;39;20546;-72
2023/05/31 18:15:08;;;;;;;15.90;15.10;;;23.10;4.00;;;;;;2612543;54;20170;-72
2023/05/31 18:20:56;;;;;;;16.53;15.73;;;22.90;5.00;;;;;;2612421;54;20366;-72
2023/05/31 18:26:43;;;;;;;18.17;16.87;;;22.70;5.40;;;;;;2613143;54;20557;-71
2023/05/31 18:32:33;;;;;;;16.93;16.03;;;22.60;6.30;;;;;;2613851;54;20735;-71
2023/05/31 18:42:20;;;;;;;16.53;15.73;;;22.40;7.90;;;;;;2614041;54;20403;-72
2023/05/31 18:48:08;;;;;;;16.90;16.03;;;22.30;8.90;;;;;;2612896;54;20383;-73
2023/05/31 18:53:55;;;;;;;16.40;15.50;;;22.10;10.20;;;;;;2613771;54;20138;-72
2023/05/31 18:59:43;;;;;;;16.57;15.77;;;22.00;11.80;;;;;;2612879;54;20134;-72
2023/05/31 19:05:31;;;;;;;16.70;15.70;;;21.90;13.10;;;;;;2611848;54;20125;-71
2023/05/31 19:11:19;;;;;;;16.90;15.87;;;21.60;14.70;;;;;;2614246;54;20122;-72
2023/05/31 19:17:06;;;;;;;17.83;16.57;;;21.30;16.00;;;;;;2612183;54;20943;-72
2023/05/31 19:22:57;;;;;;;16.57;15.77;;;21.20;17.40;;;;;;2612791;54;20142;-72
2023/05/31 19:28:45;;;;;;;16.60;15.70;;;21.00;19.40;;;;;;2613630;54;20403;-72
2023/05/31 19:34:36;;;;;;;20.07;18.67;;;20.80;21.20;;;;;;2612884;54;20141;-71
2023/05/31 19:37:50;;;;;;;18.63;17.60;;;20.60;22.20;;;;;;2613326;39;20930;-72
2023/05/31 19:40:15;;;;;;;17.30;16.30;;;20.50;24.60;;;;;;2614209;54;20910;-72
2023/05/31 19:46:03;;;;;;;20.00;18.70;;;20.00;31.20;;;;;;2613188;54;20138;-72
2023/05/31 19:51:51;;;;;;;17.77;16.87;;;19.60;42.40;;;;;;2614405;54;20270;-73
2023/05/31 19:57:39;;;;;;;16.73;15.87;;;19.40;49.70;;;;;;2612752;54;20355;-72
2023/05/31 20:03:27;;;;;;;17.50;16.40;;;19.00;62.80;;;;;;2611792;54;21149;-72
2023/05/31 20:09:15;;;;;;;17.60;16.37;;;18.90;71.00;;;;;;2610509;54;20123;-72
2023/05/31 20:15:03;;;;;;;16.50;15.63;;;18.80;83.00;;;;;;2613125;54;20126;-72
2023/05/31 20:20:51;;;;;;;17.17;16.20;;;18.60;92.30;;;;;;2613863;39;20780;-72
2023/05/31 20:26:39;;;;;;;18.10;17.20;;;18.30;98.80;;;;;;2611981;31;20652;-71
2023/05/31 20:32:26;;;;;;;16.77;15.67;;;18.20;99.90;;;;;;2611824;54;20125;-72
2023/05/31 20:42:17;;;;;;;16.53;15.30;;;17.80;99.90;;;;;;2611749;54;20363;-72
2023/05/31 20:48:05;;;;;;;16.50;15.50;;;17.50;99.90;;;;;;2610389;54;20411;-72
2023/05/31 20:53:53;;;;;;;17.00;15.50;;;17.50;99.90;;;;;;2611763;54;20126;-72
2023/05/31 20:59:40;;;;;;;16.27;15.23;;;17.30;99.90;;;;;;2611838;54;20162;-72
2023/05/31 21:05:28;;;;;;;15.20;14.20;;;17.00;99.90;;;;;;2611723;54;20165;-73
2023/05/31 21:11:16;;;;;;;15.40;14.23;;;17.20;99.90;;;;;;2612375;54;20135;-72
2023/05/31 21:17:03;;;;;;;14.40;13.60;;;17.40;99.90;;;;;;2611094;54;20138;-72
2023/05/31 21:22:53;;;;;;;13.80;13.17;;;17.50;99.90;;;;;;2611142;54;21275;-72
2023/05/31 21:28:40;;;;;;;15.07;14.30;;;17.50;99.90;;;;;;2609906;54;22203;-72
2023/05/31 21:34:28;;;;;;;14.13;13.33;;;17.50;99.90;;;;;;2610186;54;20235;-72
2023/05/31 21:37:50;;;;;;;13.93;13.13;;;17.50;99.90;;;;;;2610018;54;20408;-72
2023/05/31 21:40:19;;;;;;;15.20;14.20;;;17.50;99.90;;;;;;2609873;47;20242;-72
2023/05/31 21:46:10;;;;;;;14.90;14.00;;;17.20;99.90;;;;;;2611344;54;20965;-72
2023/05/31 21:51:57;;;;;;;14.87;14.10;;;17.00;99.90;;;;;;2611054;54;20391;-73
2023/05/31 21:57:45;;;;;;;14.60;13.80;;;17.00;99.90;;;;;;2611212;54;20186;-71
2023/05/31 22:03:33;;;;;;;14.13;13.43;;;17.20;99.90;;;;;;2610351;54;20162;-72
2023/05/31 22:09:21;;;;;;;15.07;14.07;;;17.20;99.90;;;;;;2611006;54;20150;-73
2023/05/31 22:15:09;;;;;;;14.50;13.70;;;17.20;99.90;;;;;;2610041;54;20149;-72
2023/05/31 22:20:57;;;;;;;14.93;13.83;;;17.10;99.90;;;;;;2611084;54;20717;-72
2023/05/31 22:26:45;;;;;;;13.33;12.60;;;17.00;99.90;;;;;;2610866;54;20427;-72
2023/05/31 22:32:33;;;;;;;14.07;13.27;;;17.00;99.90;;;;;;2611001;54;20711;-72
2023/05/31 22:42:20;;;;;;;14.90;13.50;;;16.80;99.90;;;;;;2610634;54;20491;-72
2023/05/31 22:48:07;;;;;;;14.77;13.77;;;16.60;99.90;;;;;;2610928;54;20403;-72
2023/05/31 22:53:55;;;;;;;13.43;12.70;;;16.40;99.90;;;;;;2610882;46;20142;-71
2023/05/31 22:59:43;;;;;;;13.30;12.60;;;16.30;99.90;;;;;;2611102;54;20423;-72
2023/05/31 23:05:33;;;;;;;13.17;12.47;;;16.20;99.90;;;;;;2610872;54;20122;-72
2023/05/31 23:11:25;;;;;;;12.20;11.60;;;16.00;99.90;;;;;;2614388;54;20407;-72
2023/05/31 23:17:13;;;;;;;13.97;12.63;;;15.80;99.90;;;;;;2610617;54;20374;-71
2023/05/31 23:23:01;;;;;;;13.63;12.57;;;15.60;99.90;;;;;;2611054;54;20150;-71
2023/05/31 23:28:49;;;;;;;12.87;11.73;;;15.60;99.90;;;;;;2611862;54;20137;-71
2023/05/31 23:34:36;;;;;;;12.00;11.10;;;15.50;99.90;;;;;;2610439;39;20261;-71
2023/05/31 23:37:51;;;;;;;13.17;12.00;;;15.30;99.90;;;;;;2610944;54;20423;-71
2023/05/31 23:40:17;;;;;;;11.93;11.03;;;15.20;99.90;;;;;;2611288;54;20202;-71
2023/05/31 23:46:08;;;;;;;15.47;12.93;;;15.20;99.90;;;;;;2611241;54;20379;-72
2023/05/31 23:51:56;;;;;;;12.03;10.83;;;15.00;99.90;;;;;;2610628;54;20423;-72
2023/05/31 23:57:43;;;;;;;11.00;10.10;;;14.80;99.90;;;;;;2612818;54;20125;-71
